Time;durP1;ratioP1;P1;durP2;ratioP2;P2;SDS_P1;SDS_P2;PMS_P1;PMS_P2;Temp;Humidity;BMP_temperature;BMP_pressure;BME280_temperature;BME280_humidity;BME280_pressure;Samples;Min_cycle;Max_cycle;Signal;HPM_P1;HPM_P2
2021/12/04 00:00:54;;;;;;;7.50;6.82;;;;;;;;;;5014695;28;92755;-62
2021/12/04 00:03:20;;;;;;;7.82;7.13;;;;;;;;;;5008179;28;94348;-62
2021/12/04 00:05:52;;;;;;;7.97;7.18;;;;;;;;;;5014514;28;92481;-62
2021/12/04 00:08:18;;;;;;;8.65;7.85;;;;;;;;;;5012657;28;92407;-62
2021/12/04 00:10:44;;;;;;;8.50;7.30;;;;;;;;;;5018010;28;94552;-62
2021/12/04 00:13:11;;;;;;;8.18;7.38;;;;;;;;;;5014380;28;91814;-62
2021/12/04 00:15:37;;;;;;;8.35;7.57;;;;;;;;;;5015167;28;95716;-62
2021/12/04 00:18:03;;;;;;;8.57;7.78;;;;;;;;;;5013572;28;92354;-62
2021/12/04 00:20:30;;;;;;;10.93;8.90;;;;;;;;;;5012433;28;94853;-62
2021/12/04 00:22:59;;;;;;;9.88;8.70;;;;;;;;;;5013754;28;94428;-62
2021/12/04 00:25:26;;;;;;;9.63;8.38;;;;;;;;;;5013698;28;92525;-62
2021/12/04 00:27:53;;;;;;;9.57;8.68;;;;;;;;;;5014407;28;92367;-62
2021/12/04 00:30:19;;;;;;;15.43;12.18;;;;;;;;;;5013452;28;93334;-62
2021/12/04 00:32:55;;;;;;;10.77;9.65;;;;;;;;;;5016108;28;93469;-62
2021/12/04 00:35:34;;;;;;;11.15;10.05;;;;;;;;;;5012904;28;93067;-62
2021/12/04 00:49:10;;;;;;;10.70;9.63;;;;;;;;;;5011933;28;92483;-62
2021/12/04 00:51:37;;;;;;;14.02;11.00;;;;;;;;;;5012840;28;93583;-62
2021/12/04 00:54:05;;;;;;;13.60;10.63;;;;;;;;;;5012048;28;92709;-63
2021/12/04 00:56:32;;;;;;;16.88;11.93;;;;;;;;;;5016005;28;92315;-62
2021/12/04 00:58:58;;;;;;;16.90;11.68;;;;;;;;;;5012652;28;94173;-62
2021/12/04 01:01:25;;;;;;;14.70;12.00;;;;;;;;;;5012924;28;92724;-62
2021/12/04 01:03:51;;;;;;;14.70;11.90;;;;;;;;;;5011696;28;93733;-62
2021/12/04 01:06:18;;;;;;;17.80;11.93;;;;;;;;;;5013255;28;92553;-62
2021/12/04 01:08:44;;;;;;;15.77;11.02;;;;;;;;;;5011778;28;92420;-62
2021/12/04 01:11:10;;;;;;;21.90;12.80;;;;;;;;;;5004400;28;94808;-63
2021/12/04 01:13:36;;;;;;;15.98;11.45;;;;;;;;;;5001850;28;92544;-62
2021/12/04 01:16:03;;;;;;;19.45;12.35;;;;;;;;;;5010106;28;92493;-62
2021/12/04 01:18:29;;;;;;;18.15;11.55;;;;;;;;;;5015622;28;93012;-62
2021/12/04 01:20:56;;;;;;;17.52;11.23;;;;;;;;;;5013071;28;92455;-63
2021/12/04 01:23:23;;;;;;;19.48;12.30;;;;;;;;;;5012899;28;92456;-62
2021/12/04 01:25:50;;;;;;;27.70;14.60;;;;;;;;;;5012846;28;93362;-62
2021/12/04 01:28:16;;;;;;;11.30;9.10;;;;;;;;;;4993568;28;91876;-62
2021/12/04 01:30:42;;;;;;;9.32;8.32;;;;;;;;;;4997935;28;92455;-63
2021/12/04 01:33:09;;;;;;;10.35;8.73;;;;;;;;;;5013467;28;94886;-63
2021/12/04 01:35:35;;;;;;;9.00;8.10;;;;;;;;;;5010736;28;94867;-62
2021/12/04 01:38:02;;;;;;;9.95;8.13;;;;;;;;;;5011050;28;96493;-62
2021/12/04 01:40:28;;;;;;;8.38;7.57;;;;;;;;;;5014735;28;93479;-62
2021/12/04 01:42:54;;;;;;;9.35;7.88;;;;;;;;;;5011893;28;93539;-62
2021/12/04 01:45:21;;;;;;;9.40;8.43;;;;;;;;;;5011813;28;92448;-62
2021/12/04 01:47:47;;;;;;;10.93;9.05;;;;;;;;;;5011277;28;92519;-62
2021/12/04 01:50:13;;;;;;;11.48;9.07;;;;;;;;;;5012676;28;92535;-62
2021/12/04 01:52:40;;;;;;;9.60;8.68;;;;;;;;;;5013878;28;92804;-62
2021/12/04 01:55:07;;;;;;;13.30;9.23;;;;;;;;;;5013255;28;92380;-62
2021/12/04 01:57:33;;;;;;;14.13;9.25;;;;;;;;;;5012610;28;93986;-62
2021/12/04 01:59:59;;;;;;;11.63;9.90;;;;;;;;;;5008375;28;96590;-63
2021/12/04 02:02:26;;;;;;;12.60;9.68;;;;;;;;;;5014335;28;93490;-63
2021/12/04 02:04:52;;;;;;;13.75;11.05;;;;;;;;;;5010669;28;93348;-62
2021/12/04 02:07:20;;;;;;;16.88;10.77;;;;;;;;;;5011047;28;92472;-62
2021/12/04 02:09:46;;;;;;;13.85;11.05;;;;;;;;;;5013215;28;92654;-62
2021/12/04 02:12:13;;;;;;;14.77;10.18;;;;;;;;;;5013183;28;95197;-62
2021/12/04 02:14:40;;;;;;;15.60;10.57;;;;;;;;;;5011388;28;93821;-62
2021/12/04 02:17:08;;;;;;;14.80;10.85;;;;;;;;;;5010436;28;95727;-63
2021/12/04 02:19:34;;;;;;;14.75;11.02;;;;;;;;;;5012107;28;93495;-62
2021/12/04 02:22:01;;;;;;;17.38;12.07;;;;;;;;;;5013161;28;92401;-62
2021/12/04 02:24:27;;;;;;;20.73;12.93;;;;;;;;;;5012041;28;94845;-63
2021/12/04 02:26:53;;;;;;;20.23;13.05;;;;;;;;;;5013887;28;92878;-62
2021/12/04 02:29:20;;;;;;;18.20;13.20;;;;;;;;;;5010801;28;92378;-62
2021/12/04 02:31:50;;;;;;;22.42;13.45;;;;;;;;;;5009778;28;92458;-62
2021/12/04 02:34:23;;;;;;;21.20;14.45;;;;;;;;;;5002896;28;93936;-62
2021/12/04 02:36:49;;;;;;;28.58;13.65;;;;;;;;;;5011630;28;93843;-62
2021/12/04 02:39:23;;;;;;;22.85;15.05;;;;;;;;;;5012961;28;93280;-62
2021/12/04 02:41:50;;;;;;;24.77;14.93;;;;;;;;;;5010744;28;91874;-63
2021/12/04 02:44:16;;;;;;;26.13;15.93;;;;;;;;;;5015199;28;92507;-63
2021/12/04 02:46:43;;;;;;;22.75;15.45;;;;;;;;;;5012619;28;92581;-63
2021/12/04 02:49:12;;;;;;;27.02;15.20;;;;;;;;;;5011808;28;95683;-62
2021/12/04 02:51:39;;;;;;;22.50;15.57;;;;;;;;;;5013051;28;93641;-62
2021/12/04 02:54:06;;;;;;;30.17;15.88;;;;;;;;;;5010960;28;92570;-62
2021/12/04 02:56:32;;;;;;;27.00;16.00;;;;;;;;;;5012709;28;92515;-62
2021/12/04 02:59:02;;;;;;;25.67;16.70;;;;;;;;;;5010038;28;92539;-62
2021/12/04 03:01:29;;;;;;;35.42;17.05;;;;;;;;;;5014866;28;92480;-62
2021/12/04 03:04:05;;;;;;;31.23;15.77;;;;;;;;;;5013180;28;94634;-62
2021/12/04 03:06:36;;;;;;;29.98;16.00;;;;;;;;;;5015867;28;91791;-62
2021/12/04 03:09:03;;;;;;;27.67;15.98;;;;;;;;;;5012834;28;92399;-62
2021/12/04 03:11:29;;;;;;;31.38;17.08;;;;;;;;;;5014332;28;93486;-62
2021/12/04 03:13:56;;;;;;;35.08;16.95;;;;;;;;;;5013298;28;94864;-62
2021/12/04 03:16:24;;;;;;;39.38;17.27;;;;;;;;;;5013298;28;94611;-63
2021/12/04 03:18:50;;;;;;;72.65;17.55;;;;;;;;;;5009542;28;93751;-62
2021/12/04 03:21:17;;;;;;;36.78;17.88;;;;;;;;;;5012116;28;92805;-63
2021/12/04 03:23:55;;;;;;;36.40;16.63;;;;;;;;;;5012315;28;93281;-62
2021/12/04 03:26:22;;;;;;;55.10;18.23;;;;;;;;;;5009828;28;93559;-62
2021/12/04 03:28:50;;;;;;;42.63;18.30;;;;;;;;;;5013463;28;92444;-62
2021/12/04 03:31:41;;;;;;;37.53;18.35;;;;;;;;;;5012169;28;94072;-62
2021/12/04 03:42:23;;;;;;;53.67;19.05;;;;;;;;;;5012015;28;92861;-62
2021/12/04 03:44:49;;;;;;;53.80;18.80;;;;;;;;;;5012287;28;92738;-62
2021/12/04 03:47:16;;;;;;;62.47;19.17;;;;;;;;;;5011081;28;92606;-62
2021/12/04 03:49:43;;;;;;;53.85;18.95;;;;;;;;;;5012733;28;92563;-62
2021/12/04 03:52:09;;;;;;;57.80;18.88;;;;;;;;;;5017197;28;92420;-63
2021/12/04 03:54:35;;;;;;;80.47;20.05;;;;;;;;;;5014404;28;92431;-63
2021/12/04 03:57:05;;;;;;;44.42;19.90;;;;;;;;;;5014938;28;95516;-62
2021/12/04 03:59:32;;;;;;;63.67;21.00;;;;;;;;;;5013866;28;93492;-62
2021/12/04 04:01:58;;;;;;;93.70;19.42;;;;;;;;;;5014494;28;92422;-62
2021/12/04 04:04:25;;;;;;;50.75;20.80;;;;;;;;;;5000505;28;94750;-62
2021/12/04 04:06:51;;;;;;;48.72;20.60;;;;;;;;;;5014166;28;93791;-62
2021/12/04 04:09:17;;;;;;;87.97;21.33;;;;;;;;;;5012965;28;92402;-62
2021/12/04 04:11:44;;;;;;;82.07;22.55;;;;;;;;;;5012879;28;92304;-62
2021/12/04 04:14:10;;;;;;;56.30;21.77;;;;;;;;;;5012858;28;93776;-62
2021/12/04 04:16:39;;;;;;;92.07;21.65;;;;;;;;;;5012901;28;92470;-62
2021/12/04 04:19:06;;;;;;;58.15;21.30;;;;;;;;;;5011838;28;94613;-62
2021/12/04 04:21:39;;;;;;;87.25;21.70;;;;;;;;;;5013952;28;91630;-62
2021/12/04 04:24:06;;;;;;;58.80;21.23;;;;;;;;;;5014278;28;93533;-62
2021/12/04 04:26:32;;;;;;;102.20;23.10;;;;;;;;;;5013706;28;92545;-62
2021/12/04 04:28:59;;;;;;;60.85;21.20;;;;;;;;;;5012522;28;94924;-62
2021/12/04 04:31:25;;;;;;;98.03;24.17;;;;;;;;;;5011548;28;95421;-62
2021/12/04 04:33:57;;;;;;;146.80;23.15;;;;;;;;;;5015475;28;93638;-63
2021/12/04 04:39:09;;;;;;;94.75;23.20;;;;;;;;;;5011160;28;93531;-62
2021/12/04 05:00:55;;;;;;;109.43;23.73;;;;;;;;;;5009885;28;92384;-62
2021/12/04 05:10:16;;;;;;;96.00;23.63;;;;;;;;;;5009704;28;92579;-62
2021/12/04 05:11:56;;;;;;;79.22;26.15;;;;;;;;;;5013052;28;92325;-62
2021/12/04 05:14:22;;;;;;;106.28;24.98;;;;;;;;;;5013359;28;92084;-62
2021/12/04 05:16:52;;;;;;;125.80;24.25;;;;;;;;;;5012737;28;92557;-62
2021/12/04 05:22:04;;;;;;;78.43;25.23;;;;;;;;;;5014383;28;94752;-62
2021/12/04 05:24:31;;;;;;;93.10;23.55;;;;;;;;;;5011571;28;92568;-62
2021/12/04 05:26:58;;;;;;;146.00;26.30;;;;;;;;;;5012425;28;92431;-62
2021/12/04 05:29:24;;;;;;;157.77;25.35;;;;;;;;;;5012824;28;92458;-62
2021/12/04 05:31:50;;;;;;;160.88;25.35;;;;;;;;;;5012856;28;92285;-62
2021/12/04 05:34:17;;;;;;;116.10;25.05;;;;;;;;;;5012226;28;92516;-62
2021/12/04 05:36:44;;;;;;;131.80;25.35;;;;;;;;;;5002266;28;92544;-62
2021/12/04 05:39:10;;;;;;;101.13;24.35;;;;;;;;;;5012859;28;92741;-62
2021/12/04 05:41:37;;;;;;;150.35;25.88;;;;;;;;;;5013035;28;92430;-62
2021/12/04 05:44:06;;;;;;;115.18;26.05;;;;;;;;;;5019079;28;93845;-62
2021/12/04 05:46:37;;;;;;;145.40;24.95;;;;;;;;;;5013256;28;94797;-63
2021/12/04 05:49:10;;;;;;;135.93;24.60;;;;;;;;;;5014386;28;94669;-63
2021/12/04 05:57:03;;;;;;;88.55;24.40;;;;;;;;;;5016155;28;92371;-62
2021/12/04 05:59:30;;;;;;;83.88;24.30;;;;;;;;;;5013514;28;92681;-62
2021/12/04 06:01:56;;;;;;;172.27;26.20;;;;;;;;;;5016071;28;95599;-62
2021/12/04 06:04:23;;;;;;;147.63;25.92;;;;;;;;;;5015441;28;91698;-63
2021/12/04 06:06:49;;;;;;;130.75;25.58;;;;;;;;;;5018552;28;92605;-62
2021/12/04 06:09:15;;;;;;;124.38;25.77;;;;;;;;;;5016194;28;92471;-63
2021/12/04 06:11:42;;;;;;;158.32;25.75;;;;;;;;;;5009314;28;94992;-62
2021/12/04 06:14:08;;;;;;;90.03;25.40;;;;;;;;;;5015470;28;95703;-63
2021/12/04 06:16:34;;;;;;;104.07;26.00;;;;;;;;;;5013929;28;93486;-62
2021/12/04 06:19:24;;;;;;;126.25;27.13;;;;;;;;;;5014930;28;92363;-62
2021/12/04 06:24:35;;;;;;;196.68;28.27;;;;;;;;;;5015973;28;94451;-62
2021/12/04 06:27:02;;;;;;;112.82;26.65;;;;;;;;;;5018680;28;92324;-62
2021/12/04 06:29:28;;;;;;;182.18;26.67;;;;;;;;;;5016094;28;91830;-62
2021/12/04 06:31:55;;;;;;;90.15;25.77;;;;;;;;;;5015127;28;92558;-62
2021/12/04 06:34:21;;;;;;;97.63;24.88;;;;;;;;;;5016041;28;92425;-62
2021/12/04 06:36:47;;;;;;;121.03;26.95;;;;;;;;;;5013481;28;95962;-62
2021/12/04 06:39:14;;;;;;;99.90;25.42;;;;;;;;;;5015308;28;92502;-63
2021/12/04 06:41:41;;;;;;;98.43;26.08;;;;;;;;;;5014182;28;92437;-62
2021/12/04 06:44:07;;;;;;;88.43;26.02;;;;;;;;;;5013824;28;92505;-62
2021/12/04 06:46:35;;;;;;;112.22;25.85;;;;;;;;;;5014745;28;92470;-63
2021/12/04 06:49:09;;;;;;;153.02;27.92;;;;;;;;;;5018344;28;92346;-63
2021/12/04 06:51:39;;;;;;;107.60;25.33;;;;;;;;;;5014029;28;92550;-62
2021/12/04 06:54:17;;;;;;;109.93;25.48;;;;;;;;;;5015437;28;91893;-62
2021/12/04 06:56:43;;;;;;;83.63;25.58;;;;;;;;;;5013693;28;93534;-63
2021/12/04 06:59:13;;;;;;;114.25;26.88;;;;;;;;;;5008999;28;92816;-62
2021/12/04 07:01:39;;;;;;;107.93;24.27;;;;;;;;;;4996703;28;94841;-62
2021/12/04 07:04:07;;;;;;;129.80;26.65;;;;;;;;;;5014562;28;94790;-62
2021/12/04 07:06:34;;;;;;;86.63;25.10;;;;;;;;;;5014328;28;92462;-62
2021/12/04 07:09:00;;;;;;;88.43;26.05;;;;;;;;;;5014214;28;93907;-62
2021/12/04 07:11:27;;;;;;;101.07;25.85;;;;;;;;;;5017826;28;93623;-62
2021/12/04 07:13:53;;;;;;;67.25;23.63;;;;;;;;;;5007738;28;95195;-62
2021/12/04 07:16:23;;;;;;;70.20;24.65;;;;;;;;;;5011064;28;93500;-62
2021/12/04 07:18:50;;;;;;;86.43;24.10;;;;;;;;;;5013446;28;91576;-62
2021/12/04 07:21:16;;;;;;;69.32;22.55;;;;;;;;;;5047120;27;92404;-62
2021/12/04 07:23:43;;;;;;;60.28;22.67;;;;;;;;;;5014104;28;93529;-62
2021/12/04 07:26:09;;;;;;;71.68;22.90;;;;;;;;;;5012933;28;94899;-62
2021/12/04 07:28:36;;;;;;;74.82;23.13;;;;;;;;;;5013878;28;95511;-62
2021/12/04 07:31:02;;;;;;;59.40;23.83;;;;;;;;;;5010084;28;94559;-62
2021/12/04 07:33:29;;;;;;;58.92;22.42;;;;;;;;;;5010025;28;92342;-62
2021/12/04 07:35:57;;;;;;;89.20;23.15;;;;;;;;;;5013830;28;93909;-63
2021/12/04 07:38:24;;;;;;;77.43;23.83;;;;;;;;;;5012420;28;92567;-62
2021/12/04 07:40:51;;;;;;;87.70;24.73;;;;;;;;;;5014570;28;92481;-63
2021/12/04 07:43:17;;;;;;;91.65;23.98;;;;;;;;;;5013380;28;91689;-62
2021/12/04 07:45:44;;;;;;;92.38;23.98;;;;;;;;;;5010393;28;92408;-62
2021/12/04 07:48:10;;;;;;;59.08;22.30;;;;;;;;;;5013768;28;93830;-63
2021/12/04 07:50:37;;;;;;;75.25;23.38;;;;;;;;;;5010087;28;94953;-63
2021/12/04 07:53:03;;;;;;;84.65;23.08;;;;;;;;;;5014110;28;92510;-63
2021/12/04 07:55:30;;;;;;;68.40;23.40;;;;;;;;;;5017712;28;94328;-63
2021/12/04 07:57:59;;;;;;;85.68;24.08;;;;;;;;;;5013991;28;92796;-63
2021/12/04 08:00:26;;;;;;;72.20;23.00;;;;;;;;;;5014184;28;92403;-63
2021/12/04 08:02:52;;;;;;;75.80;24.38;;;;;;;;;;5013942;28;92621;-64
2021/12/04 08:05:19;;;;;;;63.03;21.88;;;;;;;;;;5011692;28;92496;-63
2021/12/04 08:07:45;;;;;;;75.43;23.95;;;;;;;;;;5012856;28;93358;-63
2021/12/04 08:10:13;;;;;;;62.17;22.33;;;;;;;;;;5012986;28;93381;-63
2021/12/04 08:12:39;;;;;;;79.90;23.50;;;;;;;;;;5000716;28;92464;-63
2021/12/04 08:15:07;;;;;;;58.10;22.30;;;;;;;;;;4992923;28;94919;-63
2021/12/04 08:17:33;;;;;;;60.28;22.45;;;;;;;;;;4996952;28;93238;-63
2021/12/04 08:19:59;;;;;;;55.17;21.05;;;;;;;;;;4995900;28;93481;-63
2021/12/04 08:22:26;;;;;;;62.33;22.55;;;;;;;;;;5002255;28;95844;-63
2021/12/04 08:24:52;;;;;;;50.28;23.63;;;;;;;;;;5011756;28;92467;-63
2021/12/04 08:27:19;;;;;;;65.00;23.55;;;;;;;;;;5013808;28;92252;-63
2021/12/04 08:29:45;;;;;;;53.30;22.52;;;;;;;;;;5013610;28;93475;-63
2021/12/04 08:32:11;;;;;;;59.83;22.10;;;;;;;;;;5014148;28;91629;-63
2021/12/04 08:34:38;;;;;;;65.85;24.58;;;;;;;;;;5013577;28;92952;-63
2021/12/04 08:37:05;;;;;;;60.72;23.63;;;;;;;;;;5016424;28;93643;-63
2021/12/04 08:39:31;;;;;;;66.43;24.10;;;;;;;;;;5011248;28;94810;-63
2021/12/04 08:41:58;;;;;;;72.00;25.08;;;;;;;;;;5011465;28;93234;-63
2021/12/04 08:44:25;;;;;;;84.25;25.20;;;;;;;;;;5013385;28;92426;-63
2021/12/04 08:46:51;;;;;;;75.57;25.83;;;;;;;;;;5013214;28;92551;-62
2021/12/04 08:49:18;;;;;;;60.60;24.02;;;;;;;;;;5013413;28;93354;-62
2021/12/04 08:51:44;;;;;;;63.53;25.02;;;;;;;;;;5013512;28;92408;-63
2021/12/04 08:54:11;;;;;;;76.93;25.67;;;;;;;;;;5013468;28;92332;-63
2021/12/04 08:56:37;;;;;;;77.68;26.50;;;;;;;;;;5011887;28;92718;-63
2021/12/04 08:59:04;;;;;;;76.72;25.25;;;;;;;;;;5016133;28;92449;-63
2021/12/04 09:01:32;;;;;;;76.30;25.05;;;;;;;;;;5013188;28;92454;-63
2021/12/04 09:04:01;;;;;;;67.78;25.10;;;;;;;;;;5030050;27;94863;-63
2021/12/04 09:06:27;;;;;;;59.08;25.60;;;;;;;;;;5013057;28;94355;-63
2021/12/04 09:08:54;;;;;;;68.53;25.30;;;;;;;;;;5011179;28;93579;-64
2021/12/04 09:11:25;;;;;;;74.63;25.02;;;;;;;;;;5012549;28;92475;-63
2021/12/04 09:13:52;;;;;;;73.45;24.08;;;;;;;;;;5013168;28;92998;-63
2021/12/04 09:16:18;;;;;;;67.70;25.08;;;;;;;;;;5012894;28;92445;-63
2021/12/04 09:18:45;;;;;;;59.78;24.20;;;;;;;;;;5016437;28;92499;-63
2021/12/04 09:21:11;;;;;;;61.47;24.80;;;;;;;;;;5018538;28;91898;-63
2021/12/04 09:23:40;;;;;;;76.47;24.90;;;;;;;;;;5016909;28;92703;-63
2021/12/04 09:26:12;;;;;;;58.55;22.88;;;;;;;;;;5016815;28;93261;-63
2021/12/04 09:28:50;;;;;;;59.13;21.98;;;;;;;;;;5013103;28;95942;-63
2021/12/04 09:31:35;;;;;;;51.28;21.60;;;;;;;;;;5015951;28;92363;-63
2021/12/04 09:37:00;;;;;;;64.90;22.23;;;;;;;;;;5016545;28;92694;-63
2021/12/04 10:34:13;;;;;;;53.53;20.88;;;;;;;;;;5016901;28;93457;-64
2021/12/04 10:36:40;;;;;;;55.60;23.05;;;;;;;;;;5015092;28;92338;-63
2021/12/04 10:39:11;;;;;;;54.28;20.95;;;;;;;;;;5009914;28;92380;-62
2021/12/04 10:41:39;;;;;;;;;;;;;;;;;;5016228;28;92791;-62
2021/12/04 10:44:15;;;;;;;61.65;22.02;;;;;;;;;;5015932;28;118113;-62
2021/12/04 10:47:05;;;;;;;58.47;21.83;;;;;;;;;;5015120;28;93040;-62
2021/12/04 11:03:39;;;;;;;56.20;23.48;;;;;;;;;;5015304;28;94802;-62
2021/12/04 11:22:58;;;;;;;57.72;23.10;;;;;;;;;;4933414;28;93935;-61
2021/12/04 11:26:00;;;;;;;59.40;22.13;;;;;;;;;;4947019;28;93322;-61
2021/12/04 11:42:04;;;;;;;63.22;21.58;;;;;;;;;;4950636;28;92469;-62
2021/12/04 11:44:44;;;;;;;45.90;20.83;;;;;;;;;;4953727;28;94867;-62
2021/12/04 11:47:11;;;;;;;49.70;20.07;;;;;;;;;;4952220;28;92682;-65
2021/12/04 11:49:38;;;;;;;59.47;21.58;;;;;;;;;;4953069;28;92570;-62
2021/12/04 11:52:11;;;;;;;42.80;18.90;;;;;;;;;;4950737;28;93463;-62
2021/12/04 11:54:47;;;;;;;47.80;20.88;;;;;;;;;;5012737;28;94009;-62
2021/12/04 11:57:14;;;;;;;38.35;18.15;;;;;;;;;;5014327;28;92404;-62
2021/12/04 11:59:42;;;;;;;47.92;19.00;;;;;;;;;;5014110;28;92420;-62
2021/12/04 12:02:10;;;;;;;46.45;19.30;;;;;;;;;;5014099;28;93519;-62
2021/12/04 12:04:41;;;;;;;44.53;19.42;;;;;;;;;;5013101;28;92816;-62
2021/12/04 12:07:07;;;;;;;;;;;;;;;;;;5015959;28;92471;-62
2021/12/04 12:09:35;;;;;;;39.97;18.60;;;;;;;;;;5013667;28;120527;-62
2021/12/04 12:12:03;;;;;;;38.53;18.50;;;;;;;;;;5013399;28;94256;-62
2021/12/04 12:14:37;;;;;;;51.53;20.38;;;;;;;;;;5008173;28;93619;-62
2021/12/04 12:17:04;;;;;;;43.75;19.73;;;;;;;;;;4992923;28;92357;-62
2021/12/04 12:19:39;;;;;;;42.45;19.23;;;;;;;;;;4993962;28;92359;-62
2021/12/04 12:22:22;;;;;;;43.28;19.73;;;;;;;;;;4993997;28;92493;-61
2021/12/04 12:32:48;;;;;;;60.40;31.58;;;;;;;;;;5018103;28;93152;-61
2021/12/04 12:37:50;;;;;;;40.00;19.10;;;;;;;;;;5013285;28;92388;-62
2021/12/04 12:40:18;;;;;;;42.97;19.65;;;;;;;;;;5024311;28;93057;-63
2021/12/04 12:42:45;;;;;;;43.83;20.70;;;;;;;;;;5011917;28;92458;-63
2021/12/04 12:45:23;;;;;;;53.83;23.85;;;;;;;;;;5012761;28;92467;-63
2021/12/04 12:48:00;;;;;;;48.42;22.10;;;;;;;;;;5013558;28;92388;-62
2021/12/04 12:50:38;;;;;;;46.53;20.92;;;;;;;;;;5013044;28;93514;-62
2021/12/04 12:53:09;;;;;;;47.67;20.30;;;;;;;;;;5016274;28;91698;-62
2021/12/04 12:55:36;;;;;;;45.25;20.38;;;;;;;;;;5013184;28;92382;-62
2021/12/04 12:58:14;;;;;;;42.05;19.02;;;;;;;;;;5013008;28;92531;-62
2021/12/04 13:12:05;;;;;;;48.75;19.02;;;;;;;;;;4997707;28;92531;-61
2021/12/04 13:14:53;;;;;;;40.08;18.13;;;;;;;;;;5016564;28;92416;-61
2021/12/04 13:17:25;;;;;;;38.15;18.67;;;;;;;;;;5012672;28;92512;-62
2021/12/04 13:19:53;;;;;;;44.75;20.73;;;;;;;;;;5013529;28;91719;-62
2021/12/04 13:22:21;;;;;;;42.88;20.00;;;;;;;;;;5013032;28;92429;-62
2021/12/04 13:24:49;;;;;;;40.60;20.85;;;;;;;;;;5012952;28;92367;-62
2021/12/04 13:29:43;;;;;;;50.80;21.80;;;;;;;;;;5013306;28;94446;-62
2021/12/04 13:32:10;;;;;;;41.25;20.67;;;;;;;;;;5012533;28;94632;-62
2021/12/04 13:34:38;;;;;;;43.63;21.15;;;;;;;;;;5012291;28;92465;-61
2021/12/04 13:37:04;;;;;;;41.28;20.25;;;;;;;;;;5015357;28;92509;-62
2021/12/04 13:39:31;;;;;;;58.33;26.48;;;;;;;;;;5013076;28;92308;-62
2021/12/04 13:41:58;;;;;;;41.22;18.92;;;;;;;;;;5012245;28;92466;-62
2021/12/04 13:44:26;;;;;;;40.10;20.35;;;;;;;;;;5013109;28;91555;-62
2021/12/04 13:46:54;;;;;;;40.10;21.35;;;;;;;;;;5012752;28;92241;-62
2021/12/04 13:49:26;;;;;;;38.50;19.35;;;;;;;;;;5012856;28;92346;-62
2021/12/04 13:51:56;;;;;;;42.92;21.38;;;;;;;;;;5011376;28;99056;-62
2021/12/04 13:54:23;;;;;;;;;;;;;;;;;;5012612;28;92480;-62
2021/12/04 13:56:49;;;;;;;36.58;19.38;;;;;;;;;;5014084;28;123681;-62
2021/12/04 13:59:20;;;;;;;45.22;20.63;;;;;;;;;;5008413;28;92524;-62
2021/12/04 14:01:46;;;;;;;47.00;22.95;;;;;;;;;;4992513;28;92469;-62
2021/12/04 14:04:16;;;;;;;47.78;27.17;;;;;;;;;;5013984;28;92416;-62
2021/12/04 14:06:46;;;;;;;36.93;18.33;;;;;;;;;;5015604;28;92679;-62
2021/12/04 14:09:12;;;;;;;41.10;22.33;;;;;;;;;;5016323;28;93411;-62
2021/12/04 14:11:41;;;;;;;41.28;20.42;;;;;;;;;;5015200;28;93760;-62
2021/12/04 14:14:14;;;;;;;39.38;20.23;;;;;;;;;;5015564;28;92504;-62
2021/12/04 14:16:42;;;;;;;37.15;18.80;;;;;;;;;;5014065;28;94820;-62
2021/12/04 14:19:12;;;;;;;36.08;19.85;;;;;;;;;;5015870;28;92433;-62
2021/12/04 14:21:38;;;;;;;39.78;20.77;;;;;;;;;;5019245;28;92377;-62
2021/12/04 14:24:05;;;;;;;36.88;19.58;;;;;;;;;;5015363;28;93602;-64
2021/12/04 14:26:31;;;;;;;31.23;17.23;;;;;;;;;;5013942;28;92465;-62
2021/12/04 14:29:02;;;;;;;32.38;16.40;;;;;;;;;;5014797;28;92428;-61
2021/12/04 14:31:31;;;;;;;32.13;20.05;;;;;;;;;;5003264;28;93578;-61
2021/12/04 14:33:58;;;;;;;30.50;17.75;;;;;;;;;;5011357;28;91778;-62
2021/12/04 14:36:26;;;;;;;34.45;17.98;;;;;;;;;;5014536;28;93696;-61
2021/12/04 14:38:53;;;;;;;37.00;19.02;;;;;;;;;;5014594;28;93948;-63
2021/12/04 14:41:20;;;;;;;29.25;16.77;;;;;;;;;;5012628;28;94900;-62
2021/12/04 14:43:47;;;;;;;57.20;28.45;;;;;;;;;;5018390;28;96079;-62
2021/12/04 14:46:14;;;;;;;32.90;17.38;;;;;;;;;;5014479;28;92446;-61
2021/12/04 14:48:42;;;;;;;37.17;18.05;;;;;;;;;;5015336;28;93724;-62
2021/12/04 14:51:13;;;;;;;34.65;17.95;;;;;;;;;;5015169;28;93751;-62
2021/12/04 14:53:43;;;;;;;28.38;16.63;;;;;;;;;;5014239;28;92374;-63
2021/12/04 14:56:10;;;;;;;32.55;16.77;;;;;;;;;;5014336;28;93175;-62
2021/12/04 14:58:36;;;;;;;33.88;16.25;;;;;;;;;;5015495;28;92872;-62
2021/12/04 15:01:08;;;;;;;31.60;16.20;;;;;;;;;;5006185;28;92400;-62
2021/12/04 15:03:41;;;;;;;30.30;17.05;;;;;;;;;;5011257;28;92437;-62
2021/12/04 15:06:12;;;;;;;28.02;16.15;;;;;;;;;;5012945;28;94840;-62
2021/12/04 15:08:39;;;;;;;24.20;13.88;;;;;;;;;;4995370;28;95288;-62
2021/12/04 15:11:07;;;;;;;17.83;11.18;;;;;;;;;;5000456;28;92392;-62
2021/12/04 15:13:35;;;;;;;20.42;11.52;;;;;;;;;;5015357;28;92461;-62
2021/12/04 15:16:05;;;;;;;23.17;12.20;;;;;;;;;;5014206;28;93525;-62
2021/12/04 15:18:33;;;;;;;21.43;9.70;;;;;;;;;;5012930;28;93443;-61
2021/12/04 15:21:03;;;;;;;16.95;10.07;;;;;;;;;;5007626;28;92806;-62
2021/12/04 15:23:31;;;;;;;17.55;9.93;;;;;;;;;;5011853;28;93021;-62
2021/12/04 15:26:05;;;;;;;15.02;9.18;;;;;;;;;;5015325;28;93774;-62
2021/12/04 15:28:32;;;;;;;18.42;9.43;;;;;;;;;;5014001;28;96153;-62
2021/12/04 15:30:59;;;;;;;18.75;8.68;;;;;;;;;;5012328;28;96063;-63
2021/12/04 15:33:30;;;;;;;14.07;8.73;;;;;;;;;;5025290;28;92393;-62
2021/12/04 15:36:16;;;;;;;;;;;;;;;;;;5035655;27;94927;-62
2021/12/04 15:38:51;;;;;;;12.02;6.50;;;;;;;;;;5033174;28;124240;-62
2021/12/04 15:41:30;;;;;;;10.90;6.22;;;;;;;;;;5034657;27;92873;-62
2021/12/04 15:44:38;;;;;;;15.10;6.65;;;;;;;;;;5035219;27;92357;-62
2021/12/04 15:46:57;;;;;;;10.95;5.88;;;;;;;;;;5034511;27;93496;-62
2021/12/04 15:54:49;;;;;;;13.18;5.97;;;;;;;;;;5014853;28;92478;-63
2021/12/04 15:57:23;;;;;;;13.25;6.28;;;;;;;;;;5021079;27;95014;-61
2021/12/04 15:59:52;;;;;;;14.45;7.05;;;;;;;;;;5014473;28;92395;-61
2021/12/04 16:02:21;;;;;;;12.85;7.15;;;;;;;;;;5013708;28;92466;-62
2021/12/04 16:04:49;;;;;;;15.82;7.05;;;;;;;;;;5014459;28;92268;-62
2021/12/04 16:07:21;;;;;;;15.10;7.15;;;;;;;;;;5014632;28;92301;-62
2021/12/04 16:09:47;;;;;;;14.88;7.60;;;;;;;;;;5014684;28;92341;-61
2021/12/04 16:12:14;;;;;;;14.52;7.80;;;;;;;;;;5027940;28;93023;-61
2021/12/04 16:14:42;;;;;;;16.73;8.38;;;;;;;;;;5035342;27;91770;-62
2021/12/04 16:17:09;;;;;;;18.08;8.18;;;;;;;;;;5034545;27;92542;-62
2021/12/04 16:19:37;;;;;;;13.95;7.85;;;;;;;;;;5034404;27;93521;-62
2021/12/04 16:22:07;;;;;;;19.58;9.18;;;;;;;;;;5033420;27;94852;-62
2021/12/04 16:24:36;;;;;;;23.20;11.30;;;;;;;;;;5024489;27;96665;-62
2021/12/04 16:27:25;;;;;;;29.58;13.43;;;;;;;;;;5012354;28;92483;-62
2021/12/04 16:33:07;;;;;;;22.50;10.52;;;;;;;;;;5001895;28;92726;-62
2021/12/04 16:38:04;;;;;;;18.20;8.38;;;;;;;;;;5014016;28;93242;-62
2021/12/04 16:40:34;;;;;;;28.20;11.68;;;;;;;;;;5014114;28;92632;-62
2021/12/04 16:43:07;;;;;;;24.35;11.35;;;;;;;;;;5013720;28;92520;-62
2021/12/04 16:45:34;;;;;;;21.42;10.40;;;;;;;;;;5013855;28;93566;-62
2021/12/04 16:48:05;;;;;;;18.90;10.10;;;;;;;;;;5012063;28;96941;-62
2021/12/04 16:54:50;;;;;;;22.23;10.88;;;;;;;;;;5013015;28;92568;-63
2021/12/04 16:56:31;;;;;;;21.63;8.65;;;;;;;;;;5011184;28;92416;-62
2021/12/04 16:59:12;;;;;;;25.45;9.13;;;;;;;;;;5012470;28;93490;-61
2021/12/04 17:01:50;;;;;;;19.42;8.35;;;;;;;;;;5013404;28;92436;-61
2021/12/04 17:04:16;;;;;;;18.83;7.82;;;;;;;;;;5012402;28;92386;-62
2021/12/04 17:06:44;;;;;;;15.57;7.05;;;;;;;;;;5014972;28;92619;-61
2021/12/04 17:09:11;;;;;;;12.73;6.90;;;;;;;;;;5012655;28;92686;-60
2021/12/04 17:11:37;;;;;;;15.23;7.10;;;;;;;;;;5014437;28;92435;-62
2021/12/04 17:14:04;;;;;;;24.30;8.27;;;;;;;;;;5012275;28;95082;-62
2021/12/04 17:16:30;;;;;;;16.90;7.43;;;;;;;;;;5016685;28;94525;-61
2021/12/04 17:19:07;;;;;;;18.80;7.55;;;;;;;;;;5023083;28;92466;-62
2021/12/04 17:21:35;;;;;;;14.55;7.80;;;;;;;;;;5033800;27;93376;-61
2021/12/04 17:24:02;;;;;;;18.67;7.03;;;;;;;;;;5033880;27;92381;-62
2021/12/04 17:26:29;;;;;;;25.02;9.85;;;;;;;;;;5032929;28;92951;-62
2021/12/04 17:28:55;;;;;;;18.95;8.75;;;;;;;;;;5022719;27;92647;-62
2021/12/04 17:31:22;;;;;;;20.00;8.60;;;;;;;;;;5014479;28;91697;-62
2021/12/04 17:33:50;;;;;;;24.88;8.13;;;;;;;;;;5013130;28;92405;-62
2021/12/04 17:36:16;;;;;;;25.50;11.27;;;;;;;;;;5011920;28;92431;-61
2021/12/04 17:38:44;;;;;;;27.83;12.43;;;;;;;;;;5013046;28;94756;-62
2021/12/04 17:41:11;;;;;;;23.35;9.63;;;;;;;;;;5019163;28;94250;-62
2021/12/04 17:43:38;;;;;;;21.92;9.55;;;;;;;;;;5016977;28;92387;-61
2021/12/04 17:46:04;;;;;;;17.92;8.95;;;;;;;;;;5011740;28;93729;-61
2021/12/04 17:48:31;;;;;;;16.98;9.30;;;;;;;;;;5017088;28;94630;-62